Time;durP1;ratioP1;P1;durP2;ratioP2;P2;SDS_P1;SDS_P2;PMS_P1;PMS_P2;Temp;Humidity;BMP_temperature;BMP_pressure;BME280_temperature;BME280_humidity;BME280_pressure;Samples;Min_cycle;Max_cycle;Signal;HPM_P1;HPM_P2
2022/11/22 00:01:02;;;;;;;31.15;23.40;;;3.30;99.90;;;;;;4939373;28;93466;-33
2022/11/22 00:03:28;;;;;;;31.73;22.20;;;3.40;99.90;;;;;;4939017;28;92670;-32
2022/11/22 00:05:54;;;;;;;30.05;23.27;;;3.40;99.90;;;;;;4938269;28;95779;-32
2022/11/22 00:08:20;;;;;;;27.40;23.02;;;3.40;99.90;;;;;;4939184;28;94884;-32
2022/11/22 00:10:48;;;;;;;31.63;23.95;;;3.40;99.90;;;;;;4938657;28;92276;-32
2022/11/22 00:13:15;;;;;;;27.73;21.67;;;3.30;99.90;;;;;;4938296;28;94619;-31
2022/11/22 00:15:40;;;;;;;28.20;22.73;;;3.30;99.90;;;;;;4939025;28;94856;-33
2022/11/22 00:18:06;;;;;;;25.52;20.20;;;3.30;99.90;;;;;;4938372;28;96065;-34
2022/11/22 00:20:32;;;;;;;31.15;21.33;;;3.30;99.90;;;;;;4939580;28;94789;-34
2022/11/22 00:22:58;;;;;;;28.83;21.65;;;3.30;99.90;;;;;;4939720;28;93783;-32
2022/11/22 00:25:24;;;;;;;24.98;20.75;;;3.40;99.90;;;;;;4938018;28;94767;-34
2022/11/22 00:27:49;;;;;;;34.33;23.63;;;3.40;99.90;;;;;;4938951;28;93982;-33
2022/11/22 00:30:15;;;;;;;31.70;24.80;;;3.30;99.90;;;;;;4938147;28;95227;-33
2022/11/22 00:32:41;;;;;;;29.02;22.48;;;3.30;99.90;;;;;;4938916;28;93077;-33
2022/11/22 00:35:06;;;;;;;27.88;23.30;;;3.30;99.90;;;;;;4938152;28;96605;-32
2022/11/22 00:37:32;;;;;;;31.42;22.48;;;3.40;99.90;;;;;;4926671;28;95213;-31
2022/11/22 00:39:58;;;;;;;34.00;24.05;;;3.30;99.90;;;;;;4939146;28;93430;-31
2022/11/22 00:42:23;;;;;;;27.67;22.27;;;3.50;99.90;;;;;;4938539;28;93647;-34
2022/11/22 00:44:49;;;;;;;32.72;22.77;;;3.50;99.90;;;;;;4938932;28;95227;-31
2022/11/22 00:47:15;;;;;;;31.88;25.02;;;3.40;99.90;;;;;;4938662;28;94709;-31
2022/11/22 00:49:40;;;;;;;32.35;23.88;;;3.40;99.90;;;;;;4938642;28;93399;-32
2022/11/22 00:52:06;;;;;;;31.52;23.60;;;3.40;99.90;;;;;;4935896;28;93030;-32
2022/11/22 00:54:31;;;;;;;31.80;24.92;;;3.40;99.90;;;;;;4937592;28;95922;-32
2022/11/22 00:56:57;;;;;;;43.17;26.50;;;3.30;99.90;;;;;;4938939;28;95131;-33
2022/11/22 00:59:22;;;;;;;33.75;25.35;;;3.40;99.90;;;;;;4938080;28;93152;-32
2022/11/22 01:01:48;;;;;;;30.17;22.98;;;3.40;99.90;;;;;;4938655;28;93406;-31
2022/11/22 01:04:14;;;;;;;39.58;26.15;;;3.40;99.90;;;;;;4937807;28;96224;-33
2022/11/22 01:06:39;;;;;;;36.08;25.42;;;3.30;99.90;;;;;;4938058;28;94911;-32
2022/11/22 01:09:05;;;;;;;36.45;27.20;;;3.30;99.90;;;;;;4938470;28;93704;-32
2022/11/22 01:11:30;;;;;;;33.88;25.95;;;3.40;99.90;;;;;;4938257;28;92471;-32
2022/11/22 01:13:56;;;;;;;33.78;24.13;;;3.50;99.90;;;;;;4937912;28;94818;-33
2022/11/22 01:16:22;;;;;;;31.98;25.38;;;3.40;99.90;;;;;;4937506;28;94402;-33
2022/11/22 01:18:47;;;;;;;34.70;24.67;;;3.40;99.90;;;;;;4920713;28;94500;-31
2022/11/22 01:21:13;;;;;;;34.90;23.73;;;3.40;99.90;;;;;;4918786;28;92221;-31
2022/11/22 01:23:39;;;;;;;32.38;24.98;;;3.40;99.90;;;;;;4917954;28;94390;-32
2022/11/22 01:26:08;;;;;;;33.50;25.00;;;3.40;99.90;;;;;;4918566;28;94574;-31
2022/11/22 01:28:34;;;;;;;32.97;25.58;;;3.50;99.90;;;;;;4905353;28;94373;-34
2022/11/22 01:30:59;;;;;;;39.13;24.23;;;3.50;99.90;;;;;;4918295;28;93492;-31
2022/11/22 01:33:26;;;;;;;30.83;22.88;;;3.50;99.90;;;;;;4918215;28;95240;-32
2022/11/22 01:35:53;;;;;;;33.75;25.58;;;3.50;99.90;;;;;;4918993;28;94661;-31
2022/11/22 01:38:18;;;;;;;24.92;19.55;;;3.40;99.90;;;;;;4918253;28;94508;-33
2022/11/22 01:40:44;;;;;;;30.02;24.15;;;3.40;99.90;;;;;;4918000;28;94833;-30
2022/11/22 01:43:21;;;;;;;29.33;22.55;;;3.60;99.90;;;;;;4917279;28;95737;-34
2022/11/22 01:45:52;;;;;;;29.58;24.42;;;3.60;99.90;;;;;;4917758;28;94253;-35
2022/11/22 01:48:36;;;;;;;23.77;17.52;;;3.60;99.90;;;;;;4918581;28;94149;-31
2022/11/22 01:51:14;;;;;;;26.92;19.58;;;3.70;99.90;;;;;;4918104;28;94365;-30
2022/11/22 01:53:40;;;;;;;27.83;21.27;;;3.80;99.90;;;;;;4918226;28;94250;-30
2022/11/22 01:56:11;;;;;;;37.88;26.42;;;3.70;99.90;;;;;;4917929;28;93413;-32
2022/11/22 01:58:39;;;;;;;30.25;23.58;;;3.70;99.90;;;;;;4917847;28;93225;-32
2022/11/22 02:01:06;;;;;;;33.30;26.98;;;3.70;99.90;;;;;;4918458;28;91387;-30
2022/11/22 02:03:33;;;;;;;29.48;20.50;;;3.60;99.90;;;;;;4917927;28;95279;-31
2022/11/22 02:05:59;;;;;;;35.10;26.63;;;3.60;99.90;;;;;;4918661;28;94866;-31
2022/11/22 02:08:50;;;;;;;33.58;26.00;;;3.70;99.90;;;;;;4917099;28;94237;-31
2022/11/22 02:11:17;;;;;;;33.38;24.20;;;3.70;99.90;;;;;;4906414;28;94368;-30
2022/11/22 02:13:44;;;;;;;32.17;25.55;;;3.70;99.90;;;;;;4916812;28;94972;-32
2022/11/22 02:16:10;;;;;;;35.50;24.33;;;3.60;99.90;;;;;;4917688;28;94278;-33
2022/11/22 02:18:36;;;;;;;31.42;25.42;;;3.60;99.90;;;;;;4918139;28;94495;-31
2022/11/22 02:21:03;;;;;;;32.75;25.08;;;3.60;99.90;;;;;;4916841;28;92495;-35
2022/11/22 02:23:45;;;;;;;35.25;27.40;;;3.60;99.90;;;;;;4917109;28;95358;-34
2022/11/22 02:26:11;;;;;;;29.05;22.15;;;3.60;99.90;;;;;;4917405;28;95052;-33
2022/11/22 02:28:38;;;;;;;33.80;23.77;;;3.70;99.90;;;;;;4917694;28;94316;-35
2022/11/22 02:31:04;;;;;;;31.55;22.25;;;3.70;99.90;;;;;;4918294;28;94225;-32
2022/11/22 02:33:30;;;;;;;29.52;22.98;;;3.70;99.90;;;;;;4916538;28;95738;-33
2022/11/22 02:35:56;;;;;;;28.73;19.50;;;3.70;99.90;;;;;;4917439;28;94779;-34
2022/11/22 02:38:24;;;;;;;34.67;24.58;;;3.70;99.90;;;;;;4917508;28;92736;-33
2022/11/22 02:40:50;;;;;;;;;;;3.70;99.90;;;;;;4917562;28;94406;-34
2022/11/22 02:43:37;;;;;;;26.67;17.65;;;3.80;99.90;;;;;;4920044;28;95033;-32
2022/11/22 02:46:08;;;;;;;34.57;25.17;;;3.80;99.90;;;;;;4917945;28;94017;-32
2022/11/22 02:48:33;;;;;;;32.95;24.15;;;3.80;99.90;;;;;;4918139;28;93451;-30
2022/11/22 02:51:00;;;;;;;29.48;23.27;;;3.70;99.90;;;;;;4917448;28;92375;-30
2022/11/22 02:53:28;;;;;;;34.20;26.13;;;3.70;99.90;;;;;;4916849;28;94658;-32
2022/11/22 02:55:54;;;;;;;31.77;23.67;;;3.70;99.90;;;;;;4916783;28;95005;-32
2022/11/22 02:58:19;;;;;;;30.05;24.50;;;3.70;99.90;;;;;;4917220;28;94313;-30
2022/11/22 03:00:45;;;;;;;35.60;24.42;;;3.60;99.90;;;;;;4916970;28;93224;-32
2022/11/22 03:03:10;;;;;;;29.08;23.55;;;3.70;99.90;;;;;;4917551;28;94794;-35
2022/11/22 03:05:36;;;;;;;34.65;25.55;;;3.60;99.90;;;;;;4916601;28;94564;-31
2022/11/22 03:08:01;;;;;;;31.38;23.25;;;3.60;99.90;;;;;;4917806;28;94478;-33
2022/11/22 03:10:27;;;;;;;31.52;25.27;;;3.60;99.90;;;;;;4916521;28;92303;-33
2022/11/22 03:12:55;;;;;;;36.95;24.20;;;3.60;99.90;;;;;;4917107;28;94686;-35
2022/11/22 03:15:20;;;;;;;31.17;24.37;;;3.70;99.90;;;;;;4916990;28;94614;-32
2022/11/22 03:17:46;;;;;;;29.00;24.02;;;3.80;99.90;;;;;;4917084;28;92275;-33
2022/11/22 03:20:12;;;;;;;31.48;23.95;;;3.70;99.90;;;;;;4917516;28;94501;-32
2022/11/22 03:22:37;;;;;;;37.97;24.90;;;3.70;99.90;;;;;;4915913;28;95696;-31
2022/11/22 03:25:03;;;;;;;37.25;26.17;;;3.70;99.90;;;;;;4916796;28;95664;-35
2022/11/22 03:27:29;;;;;;;29.27;22.13;;;3.60;99.90;;;;;;4917556;28;95022;-30
2022/11/22 03:29:54;;;;;;;30.10;24.10;;;3.70;99.90;;;;;;4916870;28;94008;-32
2022/11/22 03:32:20;;;;;;;30.20;22.65;;;3.70;99.90;;;;;;4917153;28;94129;-30
2022/11/22 03:34:45;;;;;;;29.05;21.00;;;3.80;99.90;;;;;;4919463;28;94687;-34
2022/11/22 03:37:11;;;;;;;30.77;17.58;;;3.80;99.90;;;;;;4920620;28;94567;-34
2022/11/22 03:39:37;;;;;;;31.63;23.42;;;3.90;99.90;;;;;;4920374;28;92736;-33
2022/11/22 03:42:02;;;;;;;27.98;22.17;;;4.00;99.90;;;;;;4919692;28;94333;-34
2022/11/22 03:44:28;;;;;;;27.65;22.13;;;3.90;99.90;;;;;;4920251;28;94218;-30
2022/11/22 03:46:53;;;;;;;26.88;20.92;;;4.00;99.90;;;;;;4919096;28;94744;-33
2022/11/22 03:49:19;;;;;;;23.95;20.40;;;4.00;99.90;;;;;;4920578;28;94601;-33
2022/11/22 03:51:45;;;;;;;31.38;22.88;;;4.00;99.90;;;;;;4919162;28;94696;-31
2022/11/22 03:54:10;;;;;;;31.13;23.42;;;4.00;99.90;;;;;;4919846;28;95436;-35
2022/11/22 03:56:36;;;;;;;31.10;22.10;;;4.00;99.90;;;;;;4919512;28;94307;-33
2022/11/22 03:59:01;;;;;;;29.15;22.08;;;3.90;99.90;;;;;;4919919;28;93480;-35
2022/11/22 04:01:27;;;;;;;30.42;23.45;;;4.00;99.90;;;;;;4920182;28;94842;-32
2022/11/22 04:03:53;;;;;;;29.33;24.02;;;4.00;99.90;;;;;;4919625;28;94619;-31
2022/11/22 04:06:18;;;;;;;31.63;21.40;;;4.00;99.90;;;;;;4920186;28;93692;-31
2022/11/22 04:08:44;;;;;;;24.35;19.98;;;4.10;99.90;;;;;;4919903;28;94041;-31
2022/11/22 04:11:09;;;;;;;35.10;23.55;;;4.20;99.90;;;;;;4919734;28;95778;-33
2022/11/22 04:16:19;;;;;;;25.63;20.38;;;4.10;99.90;;;;;;4919974;28;92187;-31
2022/11/22 04:18:44;;;;;;;32.63;24.17;;;4.10;99.90;;;;;;4920197;28;93836;-32
2022/11/22 04:26:38;;;;;;;31.13;20.63;;;4.20;99.90;;;;;;4919100;28;92239;-33
2022/11/22 04:29:04;;;;;;;31.45;22.45;;;4.20;99.90;;;;;;4920332;28;92757;-32
2022/11/22 04:34:14;;;;;;;26.90;20.67;;;4.20;99.90;;;;;;4919202;28;94657;-31
2022/11/22 04:36:40;;;;;;;30.45;23.92;;;4.20;99.90;;;;;;4919058;28;94119;-31
2022/11/22 04:39:05;;;;;;;28.50;21.95;;;4.10;99.90;;;;;;4919151;28;93464;-31
2022/11/22 04:41:31;;;;;;;25.63;21.02;;;4.20;99.90;;;;;;4918897;28;94520;-32
2022/11/22 04:46:40;;;;;;;31.23;20.42;;;4.20;99.90;;;;;;4919270;28;93580;-32
2022/11/22 04:49:06;;;;;;;26.60;22.40;;;4.10;99.90;;;;;;4919233;28;92096;-32
2022/11/22 04:54:16;;;;;;;28.67;22.70;;;4.20;99.90;;;;;;4919409;28;95992;-32
2022/11/22 04:56:41;;;;;;;28.38;22.45;;;4.20;99.90;;;;;;4918292;28;94060;-33
2022/11/22 04:59:07;;;;;;;25.83;22.33;;;4.30;99.90;;;;;;4919863;28;93336;-31
2022/11/22 05:01:33;;;;;;;26.83;19.85;;;4.20;99.90;;;;;;4918006;28;95709;-31
2022/11/22 05:03:58;;;;;;;26.23;20.30;;;4.20;99.90;;;;;;4919300;28;96102;-34
2022/11/22 05:06:24;;;;;;;24.15;21.40;;;4.20;99.90;;;;;;4918134;28;94128;-33
2022/11/22 05:08:49;;;;;;;26.17;21.38;;;4.10;99.90;;;;;;4918619;28;93236;-33
2022/11/22 05:11:15;;;;;;;31.48;21.17;;;4.20;99.90;;;;;;4918547;28;94600;-32
2022/11/22 05:13:41;;;;;;;24.92;19.70;;;4.30;99.90;;;;;;4917883;28;94706;-33
2022/11/22 05:16:10;;;;;;;30.38;22.27;;;4.20;99.90;;;;;;4919785;28;92198;-30
2022/11/22 05:18:36;;;;;;;32.03;23.67;;;4.20;99.90;;;;;;4919372;28;92541;-31
2022/11/22 05:21:12;;;;;;;24.40;20.13;;;4.20;99.90;;;;;;4918305;28;95238;-34
2022/11/22 05:23:54;;;;;;;32.30;23.08;;;4.20;99.90;;;;;;4917894;28;94814;-33
2022/11/22 05:26:31;;;;;;;34.00;23.20;;;4.20;99.90;;;;;;4918565;28;95881;-31
2022/11/22 05:28:57;;;;;;;26.55;21.13;;;4.20;99.90;;;;;;4918943;28;94313;-35
2022/11/22 05:31:26;;;;;;;27.98;21.40;;;4.20;99.90;;;;;;4918822;28;94103;-32
2022/11/22 05:33:53;;;;;;;26.60;20.25;;;4.20;99.90;;;;;;4918902;28;93945;-32
2022/11/22 05:36:19;;;;;;;28.77;21.83;;;4.20;99.90;;;;;;4918054;28;92102;-31
2022/11/22 05:38:44;;;;;;;26.52;21.25;;;4.30;99.90;;;;;;4918542;28;94411;-35
2022/11/22 05:41:11;;;;;;;29.70;22.70;;;4.30;99.90;;;;;;4917745;28;94939;-33
2022/11/22 05:43:38;;;;;;;23.38;19.40;;;4.30;99.90;;;;;;4918264;28;94446;-31
2022/11/22 05:46:11;;;;;;;29.02;22.80;;;4.30;99.90;;;;;;4918798;28;93808;-32
2022/11/22 05:48:40;;;;;;;30.90;21.30;;;4.30;99.90;;;;;;4918099;28;93268;-31
2022/11/22 05:51:07;;;;;;;26.60;19.77;;;4.30;99.90;;;;;;4917674;28;95790;-34
2022/11/22 05:53:34;;;;;;;34.55;20.70;;;4.30;99.90;;;;;;4917714;28;95698;-34
2022/11/22 05:56:13;;;;;;;26.30;20.95;;;4.30;99.90;;;;;;4918538;28;93388;-31
2022/11/22 05:58:39;;;;;;;25.98;21.45;;;4.40;99.90;;;;;;4918147;28;93091;-34
2022/11/22 06:01:13;;;;;;;27.00;22.92;;;4.40;99.90;;;;;;4917920;28;94654;-34
2022/11/22 06:03:38;;;;;;;29.20;21.15;;;4.40;99.90;;;;;;4918109;28;94370;-33
2022/11/22 06:06:06;;;;;;;30.65;21.48;;;4.40;99.90;;;;;;4917695;28;93339;-32
2022/11/22 06:08:34;;;;;;;27.33;21.10;;;4.40;99.90;;;;;;4917844;28;93358;-31
2022/11/22 06:11:20;;;;;;;25.40;20.00;;;4.50;99.90;;;;;;4918097;28;94928;-33
2022/11/22 06:13:47;;;;;;;27.70;21.45;;;4.40;99.90;;;;;;4917535;28;94626;-31
2022/11/22 06:16:13;;;;;;;25.67;20.85;;;4.50;99.90;;;;;;4917525;28;95317;-32
2022/11/22 06:18:39;;;;;;;27.23;20.75;;;4.50;99.90;;;;;;4917204;28;92198;-31
2022/11/22 06:21:07;;;;;;;28.27;19.63;;;4.50;99.90;;;;;;4917805;28;94790;-31
2022/11/22 06:23:33;;;;;;;31.83;20.83;;;4.50;99.90;;;;;;4916632;28;94912;-33
2022/11/22 06:26:01;;;;;;;20.77;17.38;;;4.50;99.90;;;;;;4918242;28;92307;-32
2022/11/22 06:28:29;;;;;;;26.13;20.83;;;4.50;99.90;;;;;;4918251;28;93374;-33
2022/11/22 06:31:05;;;;;;;24.55;18.30;;;4.60;99.90;;;;;;4918212;28;94649;-32
2022/11/22 06:33:31;;;;;;;30.90;20.95;;;4.60;99.90;;;;;;4917235;28;94270;-33
2022/11/22 06:36:10;;;;;;;26.33;20.52;;;4.60;99.90;;;;;;4917939;28;92267;-35
2022/11/22 06:38:36;;;;;;;;;;;4.60;99.90;;;;;;4918435;28;93337;-33
2022/11/22 06:41:07;;;;;;;31.73;19.27;;;4.70;99.90;;;;;;4919262;28;96022;-31
2022/11/22 06:43:34;;;;;;;30.23;19.77;;;4.70;99.90;;;;;;4917382;28;94932;-32
2022/11/22 06:46:01;;;;;;;26.90;18.25;;;4.70;99.90;;;;;;4917582;28;93272;-32
2022/11/22 06:48:32;;;;;;;23.80;19.27;;;4.70;99.90;;;;;;4916885;28;94447;-31
2022/11/22 06:51:13;;;;;;;29.95;19.83;;;4.80;99.90;;;;;;4917628;28;94466;-33
2022/11/22 06:53:38;;;;;;;29.00;19.70;;;4.70;99.90;;;;;;4917742;28;95478;-31
2022/11/22 06:56:10;;;;;;;25.35;19.30;;;4.70;99.90;;;;;;4917136;28;93986;-31
2022/11/22 06:58:36;;;;;;;25.05;19.38;;;4.70;99.90;;;;;;4917324;28;91439;-32
2022/11/22 07:01:07;;;;;;;27.33;19.25;;;4.80;99.90;;;;;;4917029;28;94268;-35
2022/11/22 07:03:37;;;;;;;23.98;18.42;;;4.70;99.90;;;;;;4916721;28;93327;-31
2022/11/22 07:06:03;;;;;;;22.80;18.67;;;4.70;99.90;;;;;;4916803;28;93872;-33
2022/11/22 07:08:30;;;;;;;29.27;19.30;;;4.80;99.90;;;;;;4920349;28;94357;-32
2022/11/22 07:11:01;;;;;;;26.98;18.83;;;4.80;99.90;;;;;;4923262;28;94637;-32
2022/11/22 07:13:27;;;;;;;23.90;18.42;;;4.80;99.90;;;;;;4923314;28;94780;-30
2022/11/22 07:15:57;;;;;;;25.05;19.38;;;4.80;99.90;;;;;;4923654;28;93419;-31
2022/11/22 07:18:23;;;;;;;28.02;19.02;;;4.90;99.90;;;;;;4923846;28;92702;-31
2022/11/22 07:20:49;;;;;;;31.17;22.20;;;4.90;99.90;;;;;;4922912;28;94764;-33
2022/11/22 07:23:15;;;;;;;24.27;18.63;;;5.00;99.90;;;;;;4923594;28;95235;-33
2022/11/22 07:25:47;;;;;;;27.83;19.45;;;4.90;99.90;;;;;;4922955;28;93512;-34
2022/11/22 07:28:14;;;;;;;31.92;21.23;;;4.90;99.90;;;;;;4923725;28;93057;-33
2022/11/22 07:30:40;;;;;;;25.85;18.63;;;4.90;99.90;;;;;;4922589;28;95601;-34
2022/11/22 07:33:06;;;;;;;27.05;19.23;;;4.90;99.90;;;;;;4923292;28;95222;-34
2022/11/22 07:35:32;;;;;;;33.60;19.70;;;5.00;99.90;;;;;;4922478;28;93286;-31
2022/11/22 07:37:57;;;;;;;25.08;19.05;;;5.00;99.90;;;;;;4923273;28;93581;-31
2022/11/22 07:40:23;;;;;;;26.45;16.95;;;5.00;99.90;;;;;;4923307;28;94661;-31
2022/11/22 07:42:48;;;;;;;29.02;17.48;;;5.10;99.90;;;;;;4922836;28;94306;-35
2022/11/22 07:45:14;;;;;;;23.10;13.80;;;5.10;99.90;;;;;;4923127;28;92162;-31
2022/11/22 07:47:40;;;;;;;21.63;14.63;;;5.20;99.90;;;;;;4923481;28;93893;-31
2022/11/22 07:50:06;;;;;;;23.33;12.73;;;5.30;99.90;;;;;;4923129;28;95667;-31
2022/11/22 07:52:31;;;;;;;22.98;12.85;;;5.30;99.90;;;;;;4921074;28;96089;-33
2022/11/22 07:54:57;;;;;;;22.08;11.02;;;5.40;99.90;;;;;;4922334;28;95077;-33
2022/11/22 07:57:22;;;;;;;20.40;11.55;;;5.50;99.90;;;;;;4922830;28;93786;-32
2022/11/22 07:59:48;;;;;;;23.02;11.18;;;5.60;99.90;;;;;;4922607;28;94740;-33
2022/11/22 08:02:14;;;;;;;15.10;9.68;;;5.60;99.90;;;;;;4922833;28;94871;-33
2022/11/22 08:04:39;;;;;;;21.98;11.05;;;5.60;99.90;;;;;;4923223;28;93714;-32
2022/11/22 08:07:05;;;;;;;18.98;9.18;;;5.50;99.90;;;;;;4923936;28;94073;-34
2022/11/22 08:09:30;;;;;;;17.80;8.98;;;5.60;99.90;;;;;;4923032;28;95066;-34
2022/11/22 08:11:56;;;;;;;17.42;9.18;;;5.60;99.90;;;;;;4923787;28;94491;-34
2022/11/22 08:14:22;;;;;;;22.05;7.85;;;5.60;99.90;;;;;;4923640;28;92939;-33
2022/11/22 08:16:48;;;;;;;13.95;6.35;;;5.70;99.90;;;;;;4922640;28;92102;-31
2022/11/22 08:19:16;;;;;;;22.83;7.95;;;5.70;99.90;;;;;;4921178;28;96253;-32
2022/11/22 08:21:46;;;;;;;15.10;6.88;;;5.80;99.90;;;;;;4919287;28;95494;-34
2022/11/22 08:24:12;;;;;;;10.30;6.85;;;5.70;99.90;;;;;;4920978;28;94135;-31
2022/11/22 08:26:37;;;;;;;18.73;7.35;;;5.80;99.90;;;;;;4919497;28;94526;-32
2022/11/22 08:29:05;;;;;;;10.95;7.10;;;5.80;99.90;;;;;;4920217;28;94759;-33
2022/11/22 08:31:30;;;;;;;19.53;6.30;;;5.80;99.90;;;;;;4919449;28;94381;-33
2022/11/22 08:33:56;;;;;;;12.55;6.03;;;5.80;99.90;;;;;;4919931;28;93667;-32
2022/11/22 08:36:22;;;;;;;13.57;6.68;;;5.90;99.90;;;;;;4917933;28;93776;-31
2022/11/22 08:38:47;;;;;;;14.98;6.50;;;5.90;99.90;;;;;;4915706;28;94754;-34
2022/11/22 08:41:13;;;;;;;16.13;6.40;;;6.00;99.90;;;;;;4917717;28;94601;-32
2022/11/22 08:43:39;;;;;;;18.45;6.93;;;6.00;99.90;;;;;;4917172;28;94170;-32
2022/11/22 08:46:05;;;;;;;8.82;4.57;;;6.00;99.90;;;;;;4916947;28;93436;-31
2022/11/22 08:48:33;;;;;;;14.80;5.82;;;6.10;99.90;;;;;;4910787;28;95224;-32
2022/11/22 08:51:04;;;;;;;10.38;5.25;;;6.20;99.90;;;;;;4917598;28;93370;-33
2022/11/22 08:53:32;;;;;;;12.20;6.20;;;6.20;99.90;;;;;;4917616;28;94968;-34
2022/11/22 08:55:59;;;;;;;6.88;4.57;;;6.40;99.90;;;;;;4917596;28;93849;-32
2022/11/22 08:58:25;;;;;;;17.63;5.38;;;6.50;99.90;;;;;;4916506;28;94320;-32
2022/11/22 09:00:51;;;;;;;16.60;5.57;;;6.50;99.90;;;;;;4917732;28;94425;-33
2022/11/22 09:03:17;;;;;;;13.65;5.22;;;6.50;99.90;;;;;;4917388;28;93950;-32
2022/11/22 09:05:43;;;;;;;15.75;5.30;;;6.50;99.90;;;;;;4916628;28;92204;-32
2022/11/22 09:08:09;;;;;;;10.02;4.70;;;6.50;99.90;;;;;;4918360;28;95851;-31
2022/11/22 09:10:34;;;;;;;11.20;5.75;;;6.60;99.90;;;;;;4915701;28;94436;-33
2022/11/22 09:13:00;;;;;;;9.23;5.20;;;6.60;99.90;;;;;;4917526;28;93244;-32
2022/11/22 09:15:25;;;;;;;14.82;5.35;;;6.60;99.90;;;;;;4981703;23;94022;-33
2022/11/22 09:17:51;;;;;;;13.18;5.55;;;6.60;99.90;;;;;;4930906;28;94526;-35
2022/11/22 09:20:18;;;;;;;11.98;5.03;;;6.60;99.90;;;;;;4937985;28;93145;-34
2022/11/22 09:22:43;;;;;;;14.95;4.85;;;6.60;99.90;;;;;;4926360;28;94289;-32
2022/11/22 09:25:09;;;;;;;13.40;4.95;;;6.60;99.90;;;;;;4937041;28;92846;-31
2022/11/22 09:27:35;;;;;;;15.23;4.90;;;6.60;99.90;;;;;;4932768;28;94197;-33
2022/11/22 09:30:01;;;;;;;8.00;4.20;;;6.60;99.90;;;;;;4936677;28;94873;-36
2022/11/22 09:32:26;;;;;;;13.00;4.90;;;6.70;99.90;;;;;;4935220;28;95238;-32
2022/11/22 09:34:52;;;;;;;10.63;5.15;;;6.70;99.90;;;;;;4935961;28;93241;-34
2022/11/22 09:37:18;;;;;;;11.82;4.75;;;6.70;99.90;;;;;;4939551;28;94703;-32
2022/11/22 09:39:45;;;;;;;7.47;4.22;;;6.80;99.90;;;;;;4940442;28;94300;-30
2022/11/22 09:42:21;;;;;;;18.15;5.85;;;6.80;99.90;;;;;;4939553;28;92214;-33
2022/11/22 09:44:49;;;;;;;11.63;4.32;;;6.90;99.90;;;;;;4940604;28;94258;-33
2022/11/22 09:47:40;;;;;;;13.75;4.85;;;6.90;99.90;;;;;;4935488;28;94670;-34
2022/11/22 09:50:23;;;;;;;12.20;4.50;;;7.00;99.90;;;;;;4933068;28;94599;-32
2022/11/22 09:52:58;;;;;;;11.65;4.88;;;7.10;99.90;;;;;;4936011;28;94099;-34
2022/11/22 09:55:27;;;;;;;7.43;4.25;;;7.10;99.90;;;;;;4926435;28;93136;-35
2022/11/22 09:58:23;;;;;;;14.93;5.22;;;7.10;99.90;;;;;;4931500;28;96239;-32
2022/11/22 10:00:48;;;;;;;9.07;4.70;;;7.10;99.90;;;;;;4923451;28;97187;-33
2022/11/22 10:03:42;;;;;;;6.55;4.22;;;7.10;99.90;;;;;;4937208;28;94585;-34
2022/11/22 10:06:18;;;;;;;17.73;4.72;;;7.10;99.90;;;;;;4937019;28;92892;-34
2022/11/22 10:09:11;;;;;;;8.48;4.20;;;7.10;99.90;;;;;;4918914;28;94863;-32
2022/11/22 10:11:45;;;;;;;14.25;4.03;;;7.10;99.90;;;;;;4937780;28;94572;-32
2022/11/22 10:14:44;;;;;;;8.27;3.95;;;7.10;99.90;;;;;;4936205;28;93530;-35
2022/11/22 10:17:41;;;;;;;14.02;4.00;;;7.20;99.90;;;;;;4938757;28;92434;-32
2022/11/22 10:20:18;;;;;;;20.63;5.28;;;7.20;99.90;;;;;;4939188;28;96491;-33
2022/11/22 10:22:45;;;;;;;7.97;3.80;;;7.20;99.90;;;;;;4935776;28;94420;-34
2022/11/22 10:25:19;;;;;;;8.13;4.00;;;7.20;99.90;;;;;;4936915;28;94612;-34
2022/11/22 10:27:57;;;;;;;8.38;3.47;;;7.20;99.90;;;;;;4944316;28;93052;-30
2022/11/22 10:30:24;;;;;;;15.70;4.38;;;7.30;99.90;;;;;;4940294;28;94895;-31
2022/11/22 10:33:03;;;;;;;9.38;4.05;;;7.30;99.90;;;;;;4940163;28;93449;-32
2022/11/22 10:35:50;;;;;;;10.07;3.17;;;7.30;99.90;;;;;;4944353;28;92257;-34
2022/11/22 10:38:18;;;;;;;10.77;4.00;;;7.20;99.90;;;;;;4937828;28;92176;-31
2022/11/22 10:40:56;;;;;;;6.80;3.05;;;7.30;99.90;;;;;;4931744;28;94676;-32
2022/11/22 10:43:38;;;;;;;6.05;3.63;;;7.30;99.90;;;;;;4931726;28;94685;-34
2022/11/22 10:46:06;;;;;;;4.63;3.33;;;7.40;99.90;;;;;;4936136;28;93588;-31
2022/11/22 10:49:04;;;;;;;9.80;3.30;;;7.40;99.90;;;;;;4931135;28;93166;-34
2022/11/22 10:51:44;;;;;;;;;;;7.50;99.90;;;;;;4935308;28;95909;-32
2022/11/22 10:54:26;;;;;;;8.98;3.30;;;7.60;99.90;;;;;;4940867;28;95038;-34
2022/11/22 10:57:20;;;;;;;11.27;3.97;;;7.50;99.90;;;;;;4935415;28;93538;-32
2022/11/22 11:00:12;;;;;;;8.63;3.67;;;7.60;99.90;;;;;;4938265;28;93528;-33
2022/11/22 11:02:43;;;;;;;11.02;3.55;;;7.50;99.90;;;;;;4941815;28;94513;-32
2022/11/22 11:05:15;;;;;;;6.75;2.85;;;7.50;99.90;;;;;;4946730;28;94375;-31
2022/11/22 11:07:46;;;;;;;9.80;3.70;;;7.60;99.90;;;;;;4933017;28;93150;-31
2022/11/22 11:10:21;;;;;;;8.63;3.20;;;7.70;99.90;;;;;;4939931;28;92485;-33
2022/11/22 11:12:55;;;;;;;9.68;3.70;;;7.60;99.90;;;;;;4930087;28;93372;-32
2022/11/22 11:15:33;;;;;;;10.15;3.88;;;7.70;99.90;;;;;;4941812;28;94607;-32
2022/11/22 11:18:06;;;;;;;4.33;2.50;;;7.70;99.90;;;;;;4943646;28;94222;-34
2022/11/22 11:20:38;;;;;;;8.88;3.30;;;7.60;99.90;;;;;;4939511;28;92379;-35
2022/11/22 11:23:03;;;;;;;8.35;3.50;;;7.60;99.90;;;;;;4944017;28;95425;-33
2022/11/22 11:25:31;;;;;;;7.55;3.20;;;7.70;99.90;;;;;;4942709;28;94566;-35
2022/11/22 11:28:06;;;;;;;6.85;3.72;;;7.80;99.90;;;;;;4942438;28;93284;-32
2022/11/22 11:30:53;;;;;;;8.27;2.90;;;7.80;99.90;;;;;;4938239;28;92736;-32
2022/11/22 11:33:30;;;;;;;5.13;3.33;;;7.90;99.90;;;;;;4939838;28;95589;-32
2022/11/22 11:36:03;;;;;;;8.63;4.38;;;7.90;99.90;;;;;;4940957;28;94450;-34
2022/11/22 11:38:36;;;;;;;8.40;3.25;;;8.00;99.90;;;;;;4924560;28;93137;-30
2022/11/22 11:41:19;;;;;;;12.55;3.80;;;8.00;99.90;;;;;;4924188;28;93068;-32
2022/11/22 11:43:45;;;;;;;10.35;3.90;;;8.00;99.90;;;;;;4929944;28;95812;-35
2022/11/22 11:46:22;;;;;;;6.25;2.97;;;8.00;99.90;;;;;;4936176;28;95740;-33
2022/11/22 11:49:16;;;;;;;7.75;3.28;;;8.00;99.90;;;;;;4936501;28;93484;-33
2022/11/22 11:51:47;;;;;;;8.75;3.30;;;8.10;99.90;;;;;;4939264;28;93263;-34
2022/11/22 11:54:21;;;;;;;7.30;3.70;;;8.10;99.90;;;;;;4942805;28;94600;-34
2022/11/22 11:56:54;;;;;;;10.50;3.90;;;8.00;99.90;;;;;;4929135;28;94691;-32
2022/11/22 11:59:47;;;;;;;8.40;3.42;;;8.00;99.90;;;;;;4941603;28;93252;-33
2022/11/22 12:02:45;;;;;;;7.95;3.55;;;8.00;99.90;;;;;;4920550;28;92774;-32
2022/11/22 12:05:13;;;;;;;8.40;3.27;;;8.00;99.90;;;;;;4937347;28;95130;-35
2022/11/22 12:07:45;;;;;;;6.18;3.13;;;8.00;99.90;;;;;;4936522;28;94677;-34
2022/11/22 12:10:47;;;;;;;11.20;3.60;;;8.10;99.90;;;;;;4937404;28;95076;-34
2022/11/22 12:13:26;;;;;;;8.15;3.47;;;8.00;99.90;;;;;;4937219;28;94157;-33
2022/11/22 12:16:06;;;;;;;4.57;3.08;;;8.00;99.90;;;;;;4935798;28;94701;-33
2022/11/22 12:18:40;;;;;;;5.45;3.20;;;8.00;99.90;;;;;;4932627;28;94546;-34
2022/11/22 12:21:21;;;;;;;8.05;2.78;;;8.00;99.90;;;;;;4937502;28;92480;-32
2022/11/22 12:23:53;;;;;;;7.07;3.80;;;8.00;99.90;;;;;;4933427;28;93462;-35
2022/11/22 12:26:19;;;;;;;7.90;3.20;;;8.00;99.90;;;;;;4936372;28;95743;-34
2022/11/22 12:28:46;;;;;;;9.10;3.13;;;8.00;99.90;;;;;;4937258;28;95005;-33
2022/11/22 12:31:24;;;;;;;7.53;3.20;;;8.00;99.90;;;;;;4936762;28;94133;-32
2022/11/22 12:33:54;;;;;;;7.70;3.42;;;8.00;99.90;;;;;;4937204;28;93732;-33
2022/11/22 12:36:28;;;;;;;5.18;2.83;;;8.10;99.90;;;;;;4918807;28;96490;-34
2022/11/22 12:38:55;;;;;;;6.32;2.75;;;8.10;99.90;;;;;;4937409;28;95450;-34
2022/11/22 12:41:26;;;;;;;9.68;3.33;;;8.10;99.90;;;;;;4937262;28;93999;-35
2022/11/22 12:43:58;;;;;;;12.50;3.90;;;8.10;99.90;;;;;;4938881;28;92723;-35
2022/11/22 12:46:44;;;;;;;7.13;3.63;;;8.10;99.90;;;;;;4936859;28;93945;-34
2022/11/22 12:49:22;;;;;;;7.15;3.25;;;8.00;99.90;;;;;;4937432;28;94622;-34
2022/11/22 12:52:14;;;;;;;5.57;3.05;;;8.00;99.90;;;;;;4937705;28;93068;-34
2022/11/22 12:54:52;;;;;;;6.72;2.78;;;8.00;99.90;;;;;;4937800;28;91390;-33
2022/11/22 12:57:21;;;;;;;;;;;8.10;99.90;;;;;;4937648;28;94246;-34
2022/11/22 13:00:05;;;;;;;;;;;8.00;99.90;;;;;;4941571;28;94411;-34
2022/11/22 13:02:44;;;;;;;6.60;3.45;;;8.00;99.90;;;;;;4940848;28;95447;-34
2022/11/22 13:05:16;;;;;;;5.82;2.95;;;8.00;99.90;;;;;;4939524;28;94201;-34
2022/11/22 13:08:02;;;;;;;5.22;3.08;;;8.00;99.90;;;;;;4938118;28;94831;-35
2022/11/22 13:10:55;;;;;;;5.70;2.78;;;8.00;99.90;;;;;;4938677;28;95954;-33
2022/11/22 13:13:30;;;;;;;11.70;3.22;;;7.90;99.90;;;;;;4938466;28;92634;-34